sensor_id;sensor_type;location;lat;lon;timestamp;P1;durP1;ratioP1;P2;durP2;ratioP2
65996;SDS011;52765;52.258;21.052;2023-05-07T00:02:05;7.20;;;3.30;;
65996;SDS011;52765;52.258;21.052;2023-05-07T00:04:31;4.90;;;3.40;;
65996;SDS011;52765;52.258;21.052;2023-05-07T00:07:03;5.25;;;3.40;;
65996;SDS011;52765;52.258;21.052;2023-05-07T00:09:28;4.90;;;3.05;;
65996;SDS011;52765;52.258;21.052;2023-05-07T00:11:54;8.70;;;3.60;;
65996;SDS011;52765;52.258;21.052;2023-05-07T00:14:19;5.90;;;3.50;;
65996;SDS011;52765;52.258;21.052;2023-05-07T00:16:45;10.23;;;3.30;;
65996;SDS011;52765;52.258;21.052;2023-05-07T00:19:11;4.85;;;2.95;;
65996;SDS011;52765;52.258;21.052;2023-05-07T00:21:37;4.18;;;2.67;;
65996;SDS011;52765;52.258;21.052;2023-05-07T00:24:02;8.48;;;3.67;;
65996;SDS011;52765;52.258;21.052;2023-05-07T00:26:28;7.93;;;3.15;;
65996;SDS011;52765;52.258;21.052;2023-05-07T00:28:53;6.35;;;3.17;;
65996;SDS011;52765;52.258;21.052;2023-05-07T00:31:19;6.22;;;3.13;;
65996;SDS011;52765;52.258;21.052;2023-05-07T00:33:44;5.35;;;3.10;;
65996;SDS011;52765;52.258;21.052;2023-05-07T00:36:10;5.53;;;3.22;;
65996;SDS011;52765;52.258;21.052;2023-05-07T00:38:35;3.38;;;2.45;;
65996;SDS011;52765;52.258;21.052;2023-05-07T00:41:01;4.80;;;3.15;;
65996;SDS011;52765;52.258;21.052;2023-05-07T00:43:27;6.25;;;3.25;;
65996;SDS011;52765;52.258;21.052;2023-05-07T00:45:53;4.50;;;2.50;;
65996;SDS011;52765;52.258;21.052;2023-05-07T00:48:18;4.57;;;3.13;;
65996;SDS011;52765;52.258;21.052;2023-05-07T00:50:44;4.65;;;2.70;;
65996;SDS011;52765;52.258;21.052;2023-05-07T00:53:10;5.25;;;2.90;;
65996;SDS011;52765;52.258;21.052;2023-05-07T00:55:36;4.50;;;3.08;;
65996;SDS011;52765;52.258;21.052;2023-05-07T00:58:02;4.38;;;2.95;;
65996;SDS011;52765;52.258;21.052;2023-05-07T01:00:28;7.38;;;2.28;;
65996;SDS011;52765;52.258;21.052;2023-05-07T01:02:54;4.07;;;2.38;;
65996;SDS011;52765;52.258;21.052;2023-05-07T01:05:19;6.63;;;3.45;;
65996;SDS011;52765;52.258;21.052;2023-05-07T01:07:48;5.40;;;2.78;;
65996;SDS011;52765;52.258;21.052;2023-05-07T01:10:16;6.63;;;2.88;;
65996;SDS011;52765;52.258;21.052;2023-05-07T01:12:42;6.50;;;3.17;;
65996;SDS011;52765;52.258;21.052;2023-05-07T01:15:09;4.63;;;2.60;;
65996;SDS011;52765;52.258;21.052;2023-05-07T01:17:35;5.05;;;2.60;;
65996;SDS011;52765;52.258;21.052;2023-05-07T01:20:03;4.82;;;2.72;;
65996;SDS011;52765;52.258;21.052;2023-05-07T01:22:31;6.15;;;2.63;;
65996;SDS011;52765;52.258;21.052;2023-05-07T01:25:02;8.05;;;2.53;;
65996;SDS011;52765;52.258;21.052;2023-05-07T01:27:28;3.17;;;2.30;;
65996;SDS011;52765;52.258;21.052;2023-05-07T01:29:54;3.83;;;2.55;;
65996;SDS011;52765;52.258;21.052;2023-05-07T01:32:21;4.18;;;2.90;;
65996;SDS011;52765;52.258;21.052;2023-05-07T01:34:52;6.55;;;3.08;;
65996;SDS011;52765;52.258;21.052;2023-05-07T01:37:19;4.57;;;2.20;;
65996;SDS011;52765;52.258;21.052;2023-05-07T01:39:46;5.93;;;2.58;;
65996;SDS011;52765;52.258;21.052;2023-05-07T01:42:12;4.80;;;2.72;;
65996;SDS011;52765;52.258;21.052;2023-05-07T01:44:38;5.47;;;2.67;;
65996;SDS011;52765;52.258;21.052;2023-05-07T01:47:03;7.45;;;2.88;;
65996;SDS011;52765;52.258;21.052;2023-05-07T01:49:29;4.40;;;2.80;;
65996;SDS011;52765;52.258;21.052;2023-05-07T01:51:55;5.18;;;2.80;;
65996;SDS011;52765;52.258;21.052;2023-05-07T01:54:25;5.05;;;2.58;;
65996;SDS011;52765;52.258;21.052;2023-05-07T01:56:53;5.05;;;2.35;;
65996;SDS011;52765;52.258;21.052;2023-05-07T01:59:18;4.60;;;2.53;;
65996;SDS011;52765;52.258;21.052;2023-05-07T02:01:44;4.05;;;2.70;;
65996;SDS011;52765;52.258;21.052;2023-05-07T02:04:12;4.82;;;2.92;;
65996;SDS011;52765;52.258;21.052;2023-05-07T02:06:38;3.90;;;2.75;;
65996;SDS011;52765;52.258;21.052;2023-05-07T02:09:03;5.15;;;3.08;;
65996;SDS011;52765;52.258;21.052;2023-05-07T02:11:29;4.75;;;2.50;;
65996;SDS011;52765;52.258;21.052;2023-05-07T02:13:55;4.60;;;2.60;;
65996;SDS011;52765;52.258;21.052;2023-05-07T02:16:20;5.20;;;2.60;;
65996;SDS011;52765;52.258;21.052;2023-05-07T02:18:47;6.35;;;2.83;;
65996;SDS011;52765;52.258;21.052;2023-05-07T02:21:12;6.00;;;3.30;;
65996;SDS011;52765;52.258;21.052;2023-05-07T02:23:38;3.80;;;2.30;;
65996;SDS011;52765;52.258;21.052;2023-05-07T02:26:03;4.05;;;2.45;;
65996;SDS011;52765;52.258;21.052;2023-05-07T02:28:29;4.13;;;2.20;;
65996;SDS011;52765;52.258;21.052;2023-05-07T02:30:55;3.55;;;2.15;;
65996;SDS011;52765;52.258;21.052;2023-05-07T02:33:20;3.95;;;2.45;;
65996;SDS011;52765;52.258;21.052;2023-05-07T02:35:46;4.07;;;2.50;;
65996;SDS011;52765;52.258;21.052;2023-05-07T02:38:11;7.00;;;2.83;;
65996;SDS011;52765;52.258;21.052;2023-05-07T02:40:37;5.57;;;2.50;;
65996;SDS011;52765;52.258;21.052;2023-05-07T02:43:05;5.25;;;3.05;;
65996;SDS011;52765;52.258;21.052;2023-05-07T02:45:32;4.30;;;2.33;;
65996;SDS011;52765;52.258;21.052;2023-05-07T02:48:08;7.72;;;2.30;;
65996;SDS011;52765;52.258;21.052;2023-05-07T02:50:33;4.63;;;2.40;;
65996;SDS011;52765;52.258;21.052;2023-05-07T02:52:59;4.63;;;2.20;;
65996;SDS011;52765;52.258;21.052;2023-05-07T02:55:25;4.85;;;2.60;;
65996;SDS011;52765;52.258;21.052;2023-05-07T02:57:50;3.45;;;2.45;;
65996;SDS011;52765;52.258;21.052;2023-05-07T03:00:19;5.18;;;2.65;;
65996;SDS011;52765;52.258;21.052;2023-05-07T03:02:45;3.85;;;2.00;;
65996;SDS011;52765;52.258;21.052;2023-05-07T03:05:10;4.82;;;2.28;;
65996;SDS011;52765;52.258;21.052;2023-05-07T03:07:36;5.10;;;2.47;;
65996;SDS011;52765;52.258;21.052;2023-05-07T03:10:03;6.10;;;2.50;;
65996;SDS011;52765;52.258;21.052;2023-05-07T03:12:29;5.47;;;2.30;;
65996;SDS011;52765;52.258;21.052;2023-05-07T03:14:55;3.55;;;2.20;;
65996;SDS011;52765;52.258;21.052;2023-05-07T03:17:21;5.28;;;2.40;;
65996;SDS011;52765;52.258;21.052;2023-05-07T03:19:48;2.95;;;2.22;;
65996;SDS011;52765;52.258;21.052;2023-05-07T03:22:14;5.22;;;2.47;;
65996;SDS011;52765;52.258;21.052;2023-05-07T03:24:40;3.45;;;1.98;;
65996;SDS011;52765;52.258;21.052;2023-05-07T03:27:05;4.50;;;2.25;;
65996;SDS011;52765;52.258;21.052;2023-05-07T03:29:31;3.67;;;2.55;;
65996;SDS011;52765;52.258;21.052;2023-05-07T03:31:56;3.63;;;2.35;;
65996;SDS011;52765;52.258;21.052;2023-05-07T03:34:22;5.18;;;2.25;;
65996;SDS011;52765;52.258;21.052;2023-05-07T03:36:48;4.75;;;2.30;;
65996;SDS011;52765;52.258;21.052;2023-05-07T03:39:14;5.82;;;2.80;;
65996;SDS011;52765;52.258;21.052;2023-05-07T03:41:39;3.78;;;2.50;;
65996;SDS011;52765;52.258;21.052;2023-05-07T03:44:05;5.18;;;2.20;;
65996;SDS011;52765;52.258;21.052;2023-05-07T03:46:31;5.63;;;2.22;;
65996;SDS011;52765;52.258;21.052;2023-05-07T03:48:57;4.55;;;2.13;;
65996;SDS011;52765;52.258;21.052;2023-05-07T03:51:23;2.65;;;2.10;;
65996;SDS011;52765;52.258;21.052;2023-05-07T03:53:48;3.50;;;2.17;;
65996;SDS011;52765;52.258;21.052;2023-05-07T03:56:14;3.33;;;2.42;;
65996;SDS011;52765;52.258;21.052;2023-05-07T03:58:39;7.15;;;2.45;;
65996;SDS011;52765;52.258;21.052;2023-05-07T04:01:05;3.88;;;2.00;;
65996;SDS011;52765;52.258;21.052;2023-05-07T04:03:32;8.15;;;2.88;;
65996;SDS011;52765;52.258;21.052;2023-05-07T04:05:57;4.00;;;2.25;;
65996;SDS011;52765;52.258;21.052;2023-05-07T04:08:23;7.07;;;2.20;;
65996;SDS011;52765;52.258;21.052;2023-05-07T04:10:53;3.05;;;2.20;;
65996;SDS011;52765;52.258;21.052;2023-05-07T04:13:19;5.10;;;2.13;;
65996;SDS011;52765;52.258;21.052;2023-05-07T04:15:45;4.18;;;2.17;;
65996;SDS011;52765;52.258;21.052;2023-05-07T04:18:11;3.17;;;2.35;;
65996;SDS011;52765;52.258;21.052;2023-05-07T04:20:37;3.78;;;2.33;;
65996;SDS011;52765;52.258;21.052;2023-05-07T04:23:02;4.43;;;2.40;;
65996;SDS011;52765;52.258;21.052;2023-05-07T04:25:28;3.85;;;2.20;;
65996;SDS011;52765;52.258;21.052;2023-05-07T04:27:53;4.35;;;2.47;;
65996;SDS011;52765;52.258;21.052;2023-05-07T04:30:19;3.75;;;2.35;;
65996;SDS011;52765;52.258;21.052;2023-05-07T04:32:44;6.43;;;2.30;;
65996;SDS011;52765;52.258;21.052;2023-05-07T04:35:10;6.75;;;2.45;;
65996;SDS011;52765;52.258;21.052;2023-05-07T04:37:35;2.53;;;2.05;;
65996;SDS011;52765;52.258;21.052;2023-05-07T04:40:01;4.63;;;2.60;;
65996;SDS011;52765;52.258;21.052;2023-05-07T04:42:26;3.08;;;2.30;;
65996;SDS011;52765;52.258;21.052;2023-05-07T04:44:52;4.88;;;2.30;;
65996;SDS011;52765;52.258;21.052;2023-05-07T04:47:19;4.13;;;2.25;;
65996;SDS011;52765;52.258;21.052;2023-05-07T04:49:44;4.57;;;2.20;;
65996;SDS011;52765;52.258;21.052;2023-05-07T04:52:10;4.68;;;2.00;;
65996;SDS011;52765;52.258;21.052;2023-05-07T04:54:35;4.05;;;2.00;;
65996;SDS011;52765;52.258;21.052;2023-05-07T04:57:00;3.08;;;2.05;;
65996;SDS011;52765;52.258;21.052;2023-05-07T04:59:28;4.55;;;2.40;;
65996;SDS011;52765;52.258;21.052;2023-05-07T05:01:54;4.15;;;2.17;;
65996;SDS011;52765;52.258;21.052;2023-05-07T05:04:19;5.82;;;2.22;;
65996;SDS011;52765;52.258;21.052;2023-05-07T05:06:45;4.47;;;2.40;;
65996;SDS011;52765;52.258;21.052;2023-05-07T05:09:11;3.00;;;2.28;;
65996;SDS011;52765;52.258;21.052;2023-05-07T05:11:39;3.90;;;2.28;;
65996;SDS011;52765;52.258;21.052;2023-05-07T05:14:09;4.13;;;2.45;;
65996;SDS011;52765;52.258;21.052;2023-05-07T05:16:38;3.75;;;2.22;;
65996;SDS011;52765;52.258;21.052;2023-05-07T05:19:07;3.33;;;2.08;;
65996;SDS011;52765;52.258;21.052;2023-05-07T05:21:36;3.50;;;2.28;;
65996;SDS011;52765;52.258;21.052;2023-05-07T05:24:05;3.78;;;2.22;;
65996;SDS011;52765;52.258;21.052;2023-05-07T05:26:34;4.22;;;1.90;;
65996;SDS011;52765;52.258;21.052;2023-05-07T05:29:03;4.57;;;2.17;;
65996;SDS011;52765;52.258;21.052;2023-05-07T05:31:34;2.65;;;1.70;;
65996;SDS011;52765;52.258;21.052;2023-05-07T05:34:01;2.03;;;1.65;;
65996;SDS011;52765;52.258;21.052;2023-05-07T05:36:28;3.03;;;2.00;;
65996;SDS011;52765;52.258;21.052;2023-05-07T05:38:55;2.85;;;1.83;;
65996;SDS011;52765;52.258;21.052;2023-05-07T05:41:20;3.30;;;2.00;;
65996;SDS011;52765;52.258;21.052;2023-05-07T05:43:48;12.13;;;6.05;;
65996;SDS011;52765;52.258;21.052;2023-05-07T05:46:16;2.90;;;1.75;;
65996;SDS011;52765;52.258;21.052;2023-05-07T05:48:44;3.28;;;1.90;;
65996;SDS011;52765;52.258;21.052;2023-05-07T05:51:12;4.00;;;2.10;;
65996;SDS011;52765;52.258;21.052;2023-05-07T05:53:40;3.40;;;1.63;;
65996;SDS011;52765;52.258;21.052;2023-05-07T05:56:09;4.07;;;2.00;;
65996;SDS011;52765;52.258;21.052;2023-05-07T05:58:37;2.22;;;1.80;;
65996;SDS011;52765;52.258;21.052;2023-05-07T06:01:06;3.42;;;1.98;;
65996;SDS011;52765;52.258;21.052;2023-05-07T06:03:34;2.58;;;1.73;;
65996;SDS011;52765;52.258;21.052;2023-05-07T06:06:03;3.78;;;2.00;;
65996;SDS011;52765;52.258;21.052;2023-05-07T06:08:32;2.30;;;1.80;;
65996;SDS011;52765;52.258;21.052;2023-05-07T06:11:05;5.18;;;2.20;;
65996;SDS011;52765;52.258;21.052;2023-05-07T06:13:33;2.88;;;1.77;;
65996;SDS011;52765;52.258;21.052;2023-05-07T06:15:59;2.10;;;1.50;;
65996;SDS011;52765;52.258;21.052;2023-05-07T06:18:25;1.95;;;1.38;;
65996;SDS011;52765;52.258;21.052;2023-05-07T06:20:51;2.95;;;1.70;;
65996;SDS011;52765;52.258;21.052;2023-05-07T06:23:17;2.97;;;2.08;;
65996;SDS011;52765;52.258;21.052;2023-05-07T06:25:45;2.75;;;2.00;;
65996;SDS011;52765;52.258;21.052;2023-05-07T06:28:13;4.80;;;1.90;;
65996;SDS011;52765;52.258;21.052;2023-05-07T06:30:39;3.35;;;1.92;;
65996;SDS011;52765;52.258;21.052;2023-05-07T06:33:05;4.05;;;1.40;;
65996;SDS011;52765;52.258;21.052;2023-05-07T06:35:30;1.75;;;1.63;;
65996;SDS011;52765;52.258;21.052;2023-05-07T06:37:56;3.33;;;1.83;;
65996;SDS011;52765;52.258;21.052;2023-05-07T06:40:21;2.38;;;1.80;;
65996;SDS011;52765;52.258;21.052;2023-05-07T06:42:47;3.05;;;1.90;;
65996;SDS011;52765;52.258;21.052;2023-05-07T06:45:12;3.17;;;1.90;;
65996;SDS011;52765;52.258;21.052;2023-05-07T06:47:38;2.92;;;1.80;;
65996;SDS011;52765;52.258;21.052;2023-05-07T06:50:03;3.70;;;2.42;;
65996;SDS011;52765;52.258;21.052;2023-05-07T06:52:29;2.03;;;1.63;;
65996;SDS011;52765;52.258;21.052;2023-05-07T06:54:55;3.72;;;1.60;;
65996;SDS011;52765;52.258;21.052;2023-05-07T06:57:20;3.28;;;2.00;;
65996;SDS011;52765;52.258;21.052;2023-05-07T06:59:46;5.13;;;2.08;;
65996;SDS011;52765;52.258;21.052;2023-05-07T07:02:11;4.03;;;2.08;;
65996;SDS011;52765;52.258;21.052;2023-05-07T07:04:40;2.13;;;1.45;;
65996;SDS011;52765;52.258;21.052;2023-05-07T07:07:07;2.83;;;1.83;;
65996;SDS011;52765;52.258;21.052;2023-05-07T07:09:32;3.83;;;1.80;;
65996;SDS011;52765;52.258;21.052;2023-05-07T07:11:58;3.63;;;1.95;;
65996;SDS011;52765;52.258;21.052;2023-05-07T07:14:23;3.10;;;1.77;;
65996;SDS011;52765;52.258;21.052;2023-05-07T07:16:49;3.78;;;1.70;;
65996;SDS011;52765;52.258;21.052;2023-05-07T07:19:14;3.00;;;1.70;;
65996;SDS011;52765;52.258;21.052;2023-05-07T07:21:40;4.07;;;1.73;;
65996;SDS011;52765;52.258;21.052;2023-05-07T07:24:06;2.47;;;1.52;;
65996;SDS011;52765;52.258;21.052;2023-05-07T07:26:32;3.45;;;2.00;;
65996;SDS011;52765;52.258;21.052;2023-05-07T07:28:57;3.05;;;1.75;;
65996;SDS011;52765;52.258;21.052;2023-05-07T07:31:23;2.17;;;1.60;;
65996;SDS011;52765;52.258;21.052;2023-05-07T07:33:48;2.67;;;1.65;;
65996;SDS011;52765;52.258;21.052;2023-05-07T07:36:15;3.00;;;1.77;;
65996;SDS011;52765;52.258;21.052;2023-05-07T07:38:41;3.33;;;1.65;;
65996;SDS011;52765;52.258;21.052;2023-05-07T07:41:07;2.25;;;1.80;;
65996;SDS011;52765;52.258;21.052;2023-05-07T07:43:34;3.65;;;1.92;;
65996;SDS011;52765;52.258;21.052;2023-05-07T07:46:00;4.97;;;2.03;;
65996;SDS011;52765;52.258;21.052;2023-05-07T07:48:29;2.67;;;2.00;;
65996;SDS011;52765;52.258;21.052;2023-05-07T07:50:54;3.58;;;1.90;;
65996;SDS011;52765;52.258;21.052;2023-05-07T07:53:19;6.43;;;2.03;;
65996;SDS011;52765;52.258;21.052;2023-05-07T07:55:45;5.72;;;2.13;;
65996;SDS011;52765;52.258;21.052;2023-05-07T07:58:10;4.18;;;1.77;;
65996;SDS011;52765;52.258;21.052;2023-05-07T08:00:36;5.20;;;1.80;;
65996;SDS011;52765;52.258;21.052;2023-05-07T08:03:02;6.63;;;2.08;;
65996;SDS011;52765;52.258;21.052;2023-05-07T08:05:28;7.32;;;2.38;;
65996;SDS011;52765;52.258;21.052;2023-05-07T08:07:54;2.83;;;1.80;;
65996;SDS011;52765;52.258;21.052;2023-05-07T08:10:19;2.45;;;2.00;;
65996;SDS011;52765;52.258;21.052;2023-05-07T08:12:48;3.40;;;1.90;;
65996;SDS011;52765;52.258;21.052;2023-05-07T08:15:14;4.80;;;1.80;;
65996;SDS011;52765;52.258;21.052;2023-05-07T08:17:40;4.65;;;1.63;;
65996;SDS011;52765;52.258;21.052;2023-05-07T08:20:06;2.50;;;1.80;;
65996;SDS011;52765;52.258;21.052;2023-05-07T08:22:33;2.47;;;1.80;;
65996;SDS011;52765;52.258;21.052;2023-05-07T08:25:00;2.72;;;1.65;;
65996;SDS011;52765;52.258;21.052;2023-05-07T08:27:26;3.53;;;2.03;;
65996;SDS011;52765;52.258;21.052;2023-05-07T08:29:51;3.95;;;1.95;;
65996;SDS011;52765;52.258;21.052;2023-05-07T08:32:17;7.93;;;1.65;;
65996;SDS011;52765;52.258;21.052;2023-05-07T08:34:42;4.53;;;1.30;;
65996;SDS011;52765;52.258;21.052;2023-05-07T08:37:08;2.63;;;1.60;;
65996;SDS011;52765;52.258;21.052;2023-05-07T08:39:33;4.43;;;1.73;;
65996;SDS011;52765;52.258;21.052;2023-05-07T08:42:00;6.45;;;2.05;;
65996;SDS011;52765;52.258;21.052;2023-05-07T08:44:27;5.32;;;2.55;;
65996;SDS011;52765;52.258;21.052;2023-05-07T08:46:56;3.28;;;2.15;;
65996;SDS011;52765;52.258;21.052;2023-05-07T08:49:24;6.22;;;2.20;;
65996;SDS011;52765;52.258;21.052;2023-05-07T08:51:50;8.35;;;2.42;;
65996;SDS011;52765;52.258;21.052;2023-05-07T08:54:16;3.20;;;1.70;;
65996;SDS011;52765;52.258;21.052;2023-05-07T08:56:42;4.47;;;1.77;;
65996;SDS011;52765;52.258;21.052;2023-05-07T08:59:08;2.45;;;1.50;;
65996;SDS011;52765;52.258;21.052;2023-05-07T09:01:33;1.50;;;1.25;;
65996;SDS011;52765;52.258;21.052;2023-05-07T09:04:00;4.10;;;1.80;;
65996;SDS011;52765;52.258;21.052;2023-05-07T09:06:26;9.77;;;2.60;;
65996;SDS011;52765;52.258;21.052;2023-05-07T09:08:52;2.15;;;1.50;;
65996;SDS011;52765;52.258;21.052;2023-05-07T09:11:19;9.98;;;3.22;;
65996;SDS011;52765;52.258;21.052;2023-05-07T09:13:46;2.28;;;1.67;;
65996;SDS011;52765;52.258;21.052;2023-05-07T09:16:15;8.02;;;2.20;;
65996;SDS011;52765;52.258;21.052;2023-05-07T09:18:41;5.28;;;2.67;;
65996;SDS011;52765;52.258;21.052;2023-05-07T09:21:09;3.95;;;1.83;;
65996;SDS011;52765;52.258;21.052;2023-05-07T09:23:37;4.75;;;2.00;;
65996;SDS011;52765;52.258;21.052;2023-05-07T09:26:03;2.83;;;1.70;;
65996;SDS011;52765;52.258;21.052;2023-05-07T09:28:29;3.60;;;1.80;;
65996;SDS011;52765;52.258;21.052;2023-05-07T09:30:55;3.53;;;1.60;;
65996;SDS011;52765;52.258;21.052;2023-05-07T09:33:21;3.95;;;1.92;;
65996;SDS011;52765;52.258;21.052;2023-05-07T09:35:53;1.92;;;1.70;;
65996;SDS011;52765;52.258;21.052;2023-05-07T09:38:19;3.00;;;1.30;;
65996;SDS011;52765;52.258;21.052;2023-05-07T09:40:46;4.38;;;1.40;;
65996;SDS011;52765;52.258;21.052;2023-05-07T09:43:13;5.53;;;2.33;;
65996;SDS011;52765;52.258;21.052;2023-05-07T09:45:39;3.78;;;1.70;;
65996;SDS011;52765;52.258;21.052;2023-05-07T09:48:05;4.32;;;1.88;;
65996;SDS011;52765;52.258;21.052;2023-05-07T09:50:35;2.35;;;1.40;;
65996;SDS011;52765;52.258;21.052;2023-05-07T09:53:02;4.28;;;2.25;;
65996;SDS011;52765;52.258;21.052;2023-05-07T09:55:28;2.88;;;1.55;;
65996;SDS011;52765;52.258;21.052;2023-05-07T09:57:54;6.32;;;2.42;;
65996;SDS011;52765;52.258;21.052;2023-05-07T10:00:21;7.53;;;2.70;;
65996;SDS011;52765;52.258;21.052;2023-05-07T10:02:51;5.68;;;1.90;;
65996;SDS011;52765;52.258;21.052;2023-05-07T10:05:18;2.88;;;1.20;;
65996;SDS011;52765;52.258;21.052;2023-05-07T10:07:46;6.93;;;1.17;;
65996;SDS011;52765;52.258;21.052;2023-05-07T10:10:12;4.45;;;1.70;;
65996;SDS011;52765;52.258;21.052;2023-05-07T10:12:40;2.47;;;1.25;;
65996;SDS011;52765;52.258;21.052;2023-05-07T10:15:06;4.50;;;1.40;;
65996;SDS011;52765;52.258;21.052;2023-05-07T10:17:34;7.05;;;1.42;;
65996;SDS011;52765;52.258;21.052;2023-05-07T10:20:01;3.10;;;1.35;;
65996;SDS011;52765;52.258;21.052;2023-05-07T10:22:27;3.13;;;1.40;;
65996;SDS011;52765;52.258;21.052;2023-05-07T10:27:28;4.05;;;1.20;;
65996;SDS011;52765;52.258;21.052;2023-05-07T10:30:12;5.93;;;1.50;;
65996;SDS011;52765;52.258;21.052;2023-05-07T10:32:47;2.28;;;1.45;;
65996;SDS011;52765;52.258;21.052;2023-05-07T10:35:26;2.42;;;1.38;;
65996;SDS011;52765;52.258;21.052;2023-05-07T10:37:57;1.77;;;1.33;;
65996;SDS011;52765;52.258;21.052;2023-05-07T10:40:22;3.85;;;1.52;;
65996;SDS011;52765;52.258;21.052;2023-05-07T10:45:20;4.18;;;1.40;;
65996;SDS011;52765;52.258;21.052;2023-05-07T10:50:42;3.63;;;1.55;;
65996;SDS011;52765;52.258;21.052;2023-05-07T10:55:43;7.90;;;1.83;;
65996;SDS011;52765;52.258;21.052;2023-05-07T11:00:46;2.90;;;1.10;;
65996;SDS011;52765;52.258;21.052;2023-05-07T11:03:12;5.00;;;1.70;;
65996;SDS011;52765;52.258;21.052;2023-05-07T11:05:40;2.67;;;1.30;;
65996;SDS011;52765;52.258;21.052;2023-05-07T11:08:06;5.03;;;1.63;;
65996;SDS011;52765;52.258;21.052;2023-05-07T11:10:51;2.42;;;1.20;;
65996;SDS011;52765;52.258;21.052;2023-05-07T11:13:40;1.92;;;1.40;;
65996;SDS011;52765;52.258;21.052;2023-05-07T11:16:22;4.68;;;1.40;;
65996;SDS011;52765;52.258;21.052;2023-05-07T11:18:55;3.65;;;1.40;;
65996;SDS011;52765;52.258;21.052;2023-05-07T11:21:54;3.75;;;1.60;;
65996;SDS011;52765;52.258;21.052;2023-05-07T11:24:13;1.63;;;1.13;;
65996;SDS011;52765;52.258;21.052;2023-05-07T11:26:48;2.78;;;1.17;;
65996;SDS011;52765;52.258;21.052;2023-05-07T11:29:15;4.25;;;1.65;;
65996;SDS011;52765;52.258;21.052;2023-05-07T11:31:43;3.53;;;1.45;;
65996;SDS011;52765;52.258;21.052;2023-05-07T11:34:08;2.50;;;1.70;;
65996;SDS011;52765;52.258;21.052;2023-05-07T11:36:35;3.63;;;1.40;;
65996;SDS011;52765;52.258;21.052;2023-05-07T11:39:22;2.47;;;1.40;;
65996;SDS011;52765;52.258;21.052;2023-05-07T11:42:01;3.72;;;1.77;;
65996;SDS011;52765;52.258;21.052;2023-05-07T11:44:45;3.72;;;1.10;;
65996;SDS011;52765;52.258;21.052;2023-05-07T11:47:19;3.60;;;1.60;;
65996;SDS011;52765;52.258;21.052;2023-05-07T11:49:46;1.67;;;1.27;;
65996;SDS011;52765;52.258;21.052;2023-05-07T11:52:16;6.97;;;1.50;;
65996;SDS011;52765;52.258;21.052;2023-05-07T11:54:54;3.28;;;2.15;;
65996;SDS011;52765;52.258;21.052;2023-05-07T11:57:21;2.03;;;1.30;;
65996;SDS011;52765;52.258;21.052;2023-05-07T11:59:47;1.48;;;1.38;;
65996;SDS011;52765;52.258;21.052;2023-05-07T12:02:16;3.25;;;1.23;;
65996;SDS011;52765;52.258;21.052;2023-05-07T12:04:44;3.03;;;1.20;;
65996;SDS011;52765;52.258;21.052;2023-05-07T12:07:19;2.95;;;1.20;;
65996;SDS011;52765;52.258;21.052;2023-05-07T12:09:45;4.13;;;1.23;;
65996;SDS011;52765;52.258;21.052;2023-05-07T12:12:11;3.65;;;1.38;;
65996;SDS011;52765;52.258;21.052;2023-05-07T12:14:42;4.97;;;1.30;;
65996;SDS011;52765;52.258;21.052;2023-05-07T12:17:10;4.93;;;1.35;;
65996;SDS011;52765;52.258;21.052;2023-05-07T12:19:36;2.80;;;1.10;;
65996;SDS011;52765;52.258;21.052;2023-05-07T12:22:03;4.72;;;1.08;;
65996;SDS011;52765;52.258;21.052;2023-05-07T12:24:42;2.45;;;1.30;;
65996;SDS011;52765;52.258;21.052;2023-05-07T12:27:15;1.70;;;1.30;;
65996;SDS011;52765;52.258;21.052;2023-05-07T12:29:48;4.18;;;1.35;;
65996;SDS011;52765;52.258;21.052;2023-05-07T12:32:15;3.03;;;1.70;;
65996;SDS011;52765;52.258;21.052;2023-05-07T12:34:50;6.90;;;1.40;;
65996;SDS011;52765;52.258;21.052;2023-05-07T12:37:16;1.85;;;1.13;;
65996;SDS011;52765;52.258;21.052;2023-05-07T12:39:47;2.08;;;1.30;;
65996;SDS011;52765;52.258;21.052;2023-05-07T12:42:16;2.03;;;1.05;;
65996;SDS011;52765;52.258;21.052;2023-05-07T12:44:48;3.22;;;1.85;;
65996;SDS011;52765;52.258;21.052;2023-05-07T12:47:14;1.45;;;1.10;;
65996;SDS011;52765;52.258;21.052;2023-05-07T12:49:40;2.17;;;1.10;;
65996;SDS011;52765;52.258;21.052;2023-05-07T12:52:06;3.03;;;1.23;;
65996;SDS011;52765;52.258;21.052;2023-05-07T12:54:32;2.45;;;1.10;;
65996;SDS011;52765;52.258;21.052;2023-05-07T12:57:00;1.55;;;1.00;;
65996;SDS011;52765;52.258;21.052;2023-05-07T12:59:39;5.22;;;1.30;;
65996;SDS011;52765;52.258;21.052;2023-05-07T13:02:05;3.95;;;2.10;;
65996;SDS011;52765;52.258;21.052;2023-05-07T13:04:32;1.40;;;0.95;;
65996;SDS011;52765;52.258;21.052;2023-05-07T13:06:58;2.47;;;0.98;;
65996;SDS011;52765;52.258;21.052;2023-05-07T13:09:24;2.63;;;1.17;;
65996;SDS011;52765;52.258;21.052;2023-05-07T13:11:50;2.58;;;1.08;;
65996;SDS011;52765;52.258;21.052;2023-05-07T13:14:15;1.73;;;1.00;;
65996;SDS011;52765;52.258;21.052;2023-05-07T13:16:41;1.95;;;1.40;;
65996;SDS011;52765;52.258;21.052;2023-05-07T13:19:07;1.42;;;0.90;;
65996;SDS011;52765;52.258;21.052;2023-05-07T13:21:33;5.10;;;1.40;;
65996;SDS011;52765;52.258;21.052;2023-05-07T13:23:58;2.90;;;1.35;;
65996;SDS011;52765;52.258;21.052;2023-05-07T13:26:24;2.08;;;1.30;;
65996;SDS011;52765;52.258;21.052;2023-05-07T13:28:52;6.93;;;1.40;;
65996;SDS011;52765;52.258;21.052;2023-05-07T13:31:18;4.22;;;1.30;;
65996;SDS011;52765;52.258;21.052;2023-05-07T13:33:45;1.83;;;1.10;;
65996;SDS011;52765;52.258;21.052;2023-05-07T13:36:12;2.60;;;1.20;;
65996;SDS011;52765;52.258;21.052;2023-05-07T13:38:38;3.17;;;1.38;;
65996;SDS011;52765;52.258;21.052;2023-05-07T13:41:07;2.92;;;1.38;;
65996;SDS011;52765;52.258;21.052;2023-05-07T13:43:32;2.75;;;1.48;;
65996;SDS011;52765;52.258;21.052;2023-05-07T13:45:58;2.40;;;1.20;;
65996;SDS011;52765;52.258;21.052;2023-05-07T13:48:26;3.80;;;1.13;;
65996;SDS011;52765;52.258;21.052;2023-05-07T13:50:51;1.42;;;1.05;;
65996;SDS011;52765;52.258;21.052;2023-05-07T13:53:17;1.60;;;0.88;;
65996;SDS011;52765;52.258;21.052;2023-05-07T13:55:43;1.77;;;1.38;;
65996;SDS011;52765;52.258;21.052;2023-05-07T13:58:09;3.85;;;1.00;;
65996;SDS011;52765;52.258;21.052;2023-05-07T14:00:35;2.88;;;1.35;;
65996;SDS011;52765;52.258;21.052;2023-05-07T14:03:01;1.67;;;0.77;;
65996;SDS011;52765;52.258;21.052;2023-05-07T14:05:26;2.90;;;1.40;;
65996;SDS011;52765;52.258;21.052;2023-05-07T14:07:53;3.45;;;0.98;;
65996;SDS011;52765;52.258;21.052;2023-05-07T14:10:24;2.72;;;1.50;;
65996;SDS011;52765;52.258;21.052;2023-05-07T14:12:50;1.73;;;0.80;;
65996;SDS011;52765;52.258;21.052;2023-05-07T14:15:17;1.73;;;0.98;;
65996;SDS011;52765;52.258;21.052;2023-05-07T14:17:43;6.43;;;1.65;;
65996;SDS011;52765;52.258;21.052;2023-05-07T14:20:11;2.63;;;1.23;;
65996;SDS011;52765;52.258;21.052;2023-05-07T14:22:38;2.95;;;1.20;;
65996;SDS011;52765;52.258;21.052;2023-05-07T14:25:04;2.33;;;1.13;;
65996;SDS011;52765;52.258;21.052;2023-05-07T14:27:30;1.58;;;1.20;;
65996;SDS011;52765;52.258;21.052;2023-05-07T14:29:55;2.92;;;1.10;;
65996;SDS011;52765;52.258;21.052;2023-05-07T14:32:21;2.13;;;1.20;;
65996;SDS011;52765;52.258;21.052;2023-05-07T14:34:47;1.45;;;1.20;;
65996;SDS011;52765;52.258;21.052;2023-05-07T14:37:12;3.95;;;1.58;;
65996;SDS011;52765;52.258;21.052;2023-05-07T14:39:38;3.40;;;1.77;;
65996;SDS011;52765;52.258;21.052;2023-05-07T14:42:03;2.70;;;1.52;;
65996;SDS011;52765;52.258;21.052;2023-05-07T14:44:29;3.10;;;2.05;;
65996;SDS011;52765;52.258;21.052;2023-05-07T14:46:56;6.28;;;1.40;;